Los Padillas, New Mexico
Current Conditions -  °F | °C
As of 12:52 PM on Sunday 21 Dec 2014 (Local Time) from KABQ Reporting Station
Broken Clouds Broken Clouds  
Wind Chill: 45°   Ceiling: 24000
Heat Index: 45°   Visibility: 10mi
Dew Point: 28°   Wind: 3mph
Humidity: 52%   Direction: 180°S
Pressure: 29.94"   Gusts: NA
Location:  34.9856°N, 106.629°W
Report Text: KABQ 211952Z 18003KT 10SM FEW055 SCT170 BKN240 07/M02 A2994 RMK AO2 SLP127 T00721022
Loading
Personal Weather Stations






























Interactive Weather Map New forecast layout! Learn more

10-Day Weather Forecast

Advertisements
Track Severe Weather on mobile